createdAt,value
2018-02-25T00:00:03.909Z,-6.7
2018-02-25T00:01:03.020Z,-6.7
2018-02-25T00:02:02.140Z,-6.7
2018-02-25T00:03:00.890Z,-6.7
2018-02-25T00:04:58.165Z,-6.8
2018-02-25T00:05:57.487Z,-6.8
2018-02-25T00:06:56.318Z,-6.8
2018-02-25T00:09:52.792Z,-6.8
2018-02-25T00:10:51.507Z,-6.8
2018-02-25T00:11:50.507Z,-6.8
2018-02-25T00:12:49.224Z,-6.9
2018-02-25T00:13:48.452Z,-6.9
2018-02-25T00:14:47.267Z,-6.9
2018-02-25T00:15:46.101Z,-6.9
2018-02-25T00:16:44.701Z,-6.9
2018-02-25T00:17:43.931Z,-6.9
2018-02-25T00:19:41.529Z,-6.9
2018-02-25T00:20:40.535Z,-6.9
2018-02-25T00:21:39.258Z,-6.9
2018-02-25T00:23:36.959Z,-6.9
2018-02-25T00:24:35.460Z,-6.9
2018-02-25T00:25:34.786Z,-6.9
2018-02-25T00:30:28.698Z,-6.9
2018-02-25T00:31:27.913Z,-6.9
2018-02-25T00:32:26.744Z,-6.9
2018-02-25T00:34:24.227Z,-7
2018-02-25T00:35:23.571Z,-7
2018-02-25T00:36:22.290Z,-6.9
2018-02-25T00:37:20.793Z,-6.9
2018-02-25T00:38:19.691Z,-7
2018-02-25T00:39:18.807Z,-7
2018-02-25T00:40:17.642Z,-7
2018-02-25T00:41:16.460Z,-7
2018-02-25T00:42:15.177Z,-7
2018-02-25T00:43:14.397Z,-7
2018-02-25T00:44:13.222Z,-7
2018-02-25T00:45:11.948Z,-7
2018-02-25T00:46:11.060Z,-7
2018-02-25T00:47:09.786Z,-7
2018-02-25T00:48:08.495Z,-7
2018-02-25T00:49:07.216Z,-7
2018-02-25T00:50:06.323Z,-7
2018-02-25T00:52:03.818Z,-7
2018-02-25T00:54:01.807Z,-7
2018-02-25T00:55:00.635Z,-7
2018-02-25T00:55:59.747Z,-7
2018-02-25T00:56:58.577Z,-7
2018-02-25T00:57:56.966Z,-7
2018-02-25T00:58:56.201Z,-7
2018-02-25T00:59:55.211Z,-7
2018-02-25T01:00:53.534Z,-7.1
2018-02-25T01:01:52.862Z,-7.1
2018-02-25T01:02:51.579Z,-7.1
2018-02-25T01:03:50.082Z,-7.1
2018-02-25T01:04:49.192Z,-7.1
2018-02-25T01:05:47.912Z,-7.1
2018-02-25T01:06:47.019Z,-7.1
2018-02-25T01:07:45.627Z,-7.1
2018-02-25T01:08:44.745Z,-7.1
2018-02-25T01:12:39.990Z,-7.1
2018-02-25T01:13:39.216Z,-7.1
2018-02-25T01:14:37.933Z,-7.1
2018-02-25T01:16:35.629Z,-7.1
2018-02-25T01:18:33.616Z,-7.1
2018-02-25T01:19:32.343Z,-7.2
2018-02-25T01:20:31.181Z,-7.2
2018-02-25T01:21:29.908Z,-7.2
2018-02-25T01:22:28.518Z,-7.2
2018-02-25T01:23:27.313Z,-7.2
2018-02-25T01:24:26.533Z,-7.2
2018-02-25T01:26:24.200Z,-7.3
2018-02-25T01:27:23.091Z,-7.3
2018-02-25T01:28:22.092Z,-7.3
2018-02-25T01:29:20.930Z,-7.3
2018-02-25T01:31:18.532Z,-7.3
2018-02-25T01:32:17.141Z,-7.3
2018-02-25T01:34:15.235Z,-7.4
2018-02-25T01:35:13.949Z,-7.4
2018-02-25T01:36:12.878Z,-7.4
2018-02-25T01:36:43.416Z,-7.4
2018-02-25T01:38:10.414Z,-7.4
2018-02-25T01:40:08.016Z,-7.4
2018-02-25T01:41:07.238Z,-7.4
2018-02-25T01:42:06.133Z,-7.5
2018-02-25T01:43:04.958Z,-7.5
2018-02-25T01:45:02.448Z,-7.5
2018-02-25T01:46:01.185Z,-7.5
2018-02-25T01:47:00.195Z,-7.5
2018-02-25T01:47:59.423Z,-7.5
2018-02-25T01:48:58.134Z,-7.5
2018-02-25T01:49:56.958Z,-7.5
2018-02-25T01:50:55.674Z,-7.5
2018-02-25T01:51:54.390Z,-7.5
2018-02-25T01:52:53.233Z,-7.5
2018-02-25T01:53:52.390Z,-7.6
2018-02-25T01:54:51.351Z,-7.6
2018-02-25T01:56:49.062Z,-7.6
2018-02-25T01:57:47.885Z,-7.6
2018-02-25T01:58:46.389Z,-7.6
2018-02-25T01:59:45.398Z,-7.6
2018-02-25T02:00:44.112Z,-7.7
2018-02-25T02:01:43.233Z,-7.7
2018-02-25T02:02:41.849Z,-7.7
2018-02-25T02:03:40.955Z,-7.7
2018-02-25T02:04:39.467Z,-7.7
2018-02-25T02:05:38.469Z,-7.7
2018-02-25T02:09:33.720Z,-7.7
2018-02-25T02:10:32.831Z,-7.7
2018-02-25T02:11:31.656Z,-7.8
2018-02-25T02:12:30.876Z,-7.8
2018-02-25T02:13:29.485Z,-7.8
2018-02-25T02:14:28.211Z,-7.8
2018-02-25T02:15:27.035Z,-7.8
2018-02-25T02:16:26.258Z,-7.8
2018-02-25T02:19:22.636Z,-7.8
2018-02-25T02:20:21.241Z,-7.9
2018-02-25T02:21:20.067Z,-7.9
2018-02-25T02:23:17.951Z,-7.9
2018-02-25T02:25:15.436Z,-7.9
2018-02-25T02:26:14.544Z,-7.9
2018-02-25T02:27:13.266Z,-7.9
2018-02-25T02:28:12.098Z,-7.9
2018-02-25T02:29:11.323Z,-7.9
2018-02-25T02:30:10.150Z,-8
2018-02-25T02:32:07.759Z,-8
2018-02-25T02:33:06.154Z,-8
2018-02-25T02:34:05.484Z,-8
2018-02-25T02:35:04.322Z,-8.1
2018-02-25T02:36:03.268Z,-8.1
2018-02-25T02:37:02.117Z,-8.1
2018-02-25T02:38:00.935Z,-8.1
2018-02-25T02:38:59.783Z,-8.1
2018-02-25T02:39:58.547Z,-8.1
2018-02-25T02:40:57.365Z,-8.1
2018-02-25T02:41:56.226Z,-8.1
2018-02-25T02:42:54.838Z,-8.1
2018-02-25T02:43:54.066Z,-8.1
2018-02-25T02:44:52.469Z,-8.2
2018-02-25T02:46:50.475Z,-8.2
2018-02-25T02:47:49.308Z,-8.2
2018-02-25T02:49:46.795Z,-8.2
2018-02-25T02:50:45.910Z,-8.2
2018-02-25T02:51:44.626Z,-8.3
2018-02-25T02:52:43.355Z,-8.2
2018-02-25T02:53:13.900Z,-8.2
2018-02-25T02:53:44.344Z,-8.3
2018-02-25T02:54:15.112Z,-8.3
2018-02-25T02:55:39.995Z,-8.3
2018-02-25T02:58:36.765Z,-8.3
2018-02-25T02:59:35.489Z,-8.3
2018-02-25T03:02:32.142Z,-8.3
2018-02-25T03:03:02.693Z,-8.3
2018-02-25T03:03:33.357Z,-8.3
2018-02-25T03:04:04.012Z,-8.3
2018-02-25T03:05:28.506Z,-8.3
2018-02-25T03:06:27.739Z,-8.3
2018-02-25T03:07:26.068Z,-8.3
2018-02-25T03:08:25.179Z,-8.3
2018-02-25T03:09:24.189Z,-8.4
2018-02-25T03:12:20.839Z,-8.5
2018-02-25T03:13:19.440Z,-8.5
2018-02-25T03:14:18.054Z,-8.5
2018-02-25T03:15:17.161Z,-8.5
2018-02-25T03:17:14.652Z,-8.5
2018-02-25T03:18:13.772Z,-8.5
2018-02-25T03:19:12.599Z,-8.5
2018-02-25T03:22:08.966Z,-8.6
2018-02-25T03:23:08.180Z,-8.6
2018-02-25T03:25:05.872Z,-8.6
2018-02-25T03:26:04.475Z,-8.6
2018-02-25T03:28:02.076Z,-8.6
2018-02-25T03:29:00.907Z,-8.6
2018-02-25T03:29:59.917Z,-8.6
2018-02-25T03:30:58.648Z,-8.7
2018-02-25T03:31:57.484Z,-8.7
2018-02-25T03:32:56.216Z,-8.6
2018-02-25T03:33:26.751Z,-8.6
2018-02-25T03:35:52.529Z,-8.7
2018-02-25T03:36:51.765Z,-8.7
2018-02-25T03:37:50.261Z,-8.7
2018-02-25T03:38:49.484Z,-8.7
2018-02-25T03:39:47.878Z,-8.7
2018-02-25T03:40:47.099Z,-8.7
2018-02-25T03:41:45.809Z,-8.8
2018-02-25T03:42:45.029Z,-8.7
2018-02-25T03:43:15.178Z,-8.7
2018-02-25T03:43:45.825Z,-8.7
2018-02-25T03:44:16.361Z,-8.7
2018-02-25T03:45:47.622Z,-8.7
2018-02-25T03:46:11.737Z,-8.7
2018-02-25T03:47:39.144Z,-8.7
2018-02-25T03:48:37.756Z,-8.7
2018-02-25T03:50:35.352Z,-8.7
2018-02-25T03:51:34.254Z,-8.7
2018-02-25T03:52:33.270Z,-8.7
2018-02-25T03:53:31.993Z,-8.7
2018-02-25T03:54:31.003Z,-8.8
2018-02-25T03:55:29.730Z,-8.7
2018-02-25T03:56:28.347Z,-8.7
2018-02-25T03:57:27.467Z,-8.7
2018-02-25T03:58:26.079Z,-8.7
2018-02-25T04:00:24.185Z,-8.7
2018-02-25T04:01:22.904Z,-8.8
2018-02-25T04:02:21.741Z,-8.8
2018-02-25T04:03:20.470Z,-8.8
2018-02-25T04:04:19.192Z,-8.7
2018-02-25T04:05:18.025Z,-8.7
2018-02-25T04:06:16.880Z,-8.7
2018-02-25T04:07:15.824Z,-8.7
2018-02-25T04:08:14.657Z,-8.8
2018-02-25T04:12:10.028Z,-8.8
2018-02-25T04:13:08.754Z,-8.8
2018-02-25T04:14:07.713Z,-8.9
2018-02-25T04:16:05.713Z,-8.8
2018-02-25T04:19:02.199Z,-8.8
2018-02-25T04:20:00.920Z,-8.9
2018-02-25T04:20:59.756Z,-8.9
2018-02-25T04:21:58.307Z,-8.9
2018-02-25T04:23:56.413Z,-8.9
2018-02-25T04:24:55.029Z,-8.9
2018-02-25T04:25:54.151Z,-8.9
2018-02-25T04:26:52.776Z,-9
2018-02-25T04:27:51.288Z,-9
2018-02-25T04:28:50.119Z,-9
2018-02-25T04:29:49.153Z,-9
2018-02-25T04:30:47.991Z,-9
2018-02-25T04:31:46.833Z,-9
2018-02-25T04:33:44.734Z,-9
2018-02-25T04:34:43.251Z,-9
2018-02-25T04:35:42.267Z,-9
2018-02-25T04:36:40.886Z,-9
2018-02-25T04:37:40.011Z,-9
2018-02-25T04:39:37.618Z,-9
2018-02-25T04:40:36.636Z,-9.1
2018-02-25T04:41:35.367Z,-9.1
2018-02-25T04:42:33.982Z,-9.1
2018-02-25T04:43:33.108Z,-9.1
2018-02-25T04:44:31.942Z,-9.1
2018-02-25T04:45:30.784Z,-9.1
2018-02-25T04:46:29.620Z,-9.1
2018-02-25T04:47:28.355Z,-9.1
2018-02-25T04:48:27.084Z,-9.1
2018-02-25T04:49:25.810Z,-9.1
2018-02-25T04:50:24.935Z,-9.1
2018-02-25T04:51:23.569Z,-9.1
2018-02-25T04:54:20.549Z,-9.1
2018-02-25T04:55:19.057Z,-9.1
2018-02-25T04:56:17.676Z,-9.1
2018-02-25T04:57:17.012Z,-9.1
2018-02-25T04:59:14.515Z,-9.1
2018-02-25T05:00:13.239Z,-9.1
2018-02-25T05:01:11.854Z,-9.1
2018-02-25T05:02:10.787Z,-9.1
2018-02-25T05:03:09.902Z,-9.1
2018-02-25T05:04:08.639Z,-9.1
2018-02-25T05:05:07.146Z,-9.1
2018-02-25T05:07:05.396Z,-9.1
2018-02-25T05:08:03.718Z,-9.1
2018-02-25T05:09:02.658Z,-9.1
2018-02-25T05:10:01.671Z,-9.2
2018-02-25T05:11:00.796Z,-9.1
2018-02-25T05:11:59.407Z,-9.1
2018-02-25T05:12:58.244Z,-9.1
2018-02-25T05:13:56.967Z,-9.1
2018-02-25T05:14:55.813Z,-9.1
2018-02-25T05:16:53.522Z,-9.2
2018-02-25T05:17:52.360Z,-9.2
2018-02-25T05:18:51.304Z,-9.1
2018-02-25T05:19:49.815Z,-9.1
2018-02-25T05:20:48.831Z,-9.2
2018-02-25T05:21:47.851Z,-9.2
2018-02-25T05:22:46.470Z,-9.2
2018-02-25T05:24:44.088Z,-9.2
2018-02-25T05:26:41.710Z,-9.2
2018-02-25T05:27:40.442Z,-9.2
2018-02-25T05:30:37.043Z,-9.2
2018-02-25T05:31:36.164Z,-9.2
2018-02-25T05:32:34.779Z,-9.2
2018-02-25T05:33:33.895Z,-9.2
2018-02-25T05:34:32.514Z,-9.2
2018-02-25T05:35:31.640Z,-9.2
2018-02-25T05:36:30.256Z,-9.2
2018-02-25T05:37:28.981Z,-9.2
2018-02-25T05:37:59.306Z,-9.2
2018-02-25T05:38:29.628Z,-9.2
2018-02-25T05:39:26.733Z,-9.2
2018-02-25T05:40:25.458Z,-9.2
2018-02-25T05:41:24.470Z,-9.2
2018-02-25T05:42:23.311Z,-9.2
2018-02-25T05:43:22.141Z,-9.2
2018-02-25T05:44:20.936Z,-9.2
2018-02-25T05:45:19.777Z,-9.2
2018-02-25T05:46:18.604Z,-9.2
2018-02-25T05:47:17.630Z,-9.2
2018-02-25T05:49:15.130Z,-9.2
2018-02-25T05:52:11.502Z,-9.2
2018-02-25T05:54:09.293Z,-9.3
2018-02-25T05:55:07.813Z,-9.3
2018-02-25T05:58:04.808Z,-9.3
2018-02-25T06:00:02.430Z,-9.3
2018-02-25T06:01:01.066Z,-9.3
2018-02-25T06:01:59.799Z,-9.4
2018-02-25T06:03:57.792Z,-9.4
2018-02-25T06:04:56.313Z,-9.4
2018-02-25T06:06:54.314Z,-9.4
2018-02-25T06:07:52.938Z,-9.4
2018-02-25T06:09:50.444Z,-9.4
2018-02-25T06:10:49.570Z,-9.4
2018-02-25T06:11:48.300Z,-9.4
2018-02-25T06:13:45.906Z,-9.4
2018-02-25T06:14:44.634Z,-9.4
2018-02-25T06:15:43.759Z,-9.4
2018-02-25T06:16:42.379Z,-9.4
2018-02-25T06:17:12.605Z,-9.4
2018-02-25T06:17:43.034Z,-9.4
2018-02-25T06:18:13.470Z,-9.4
2018-02-25T06:18:43.916Z,-9.4
2018-02-25T06:19:14.574Z,-9.4
2018-02-25T06:20:38.080Z,-9.4
2018-02-25T06:23:34.169Z,-9.5
2018-02-25T06:24:33.289Z,-9.5
2018-02-25T06:25:31.899Z,-9.5
2018-02-25T06:27:29.799Z,-9.5
2018-02-25T06:28:28.636Z,-9.4
2018-02-25T06:29:27.249Z,-9.4
2018-02-25T06:30:25.974Z,-9.4
2018-02-25T06:31:24.809Z,-9.4
2018-02-25T06:32:23.637Z,-9.4
2018-02-25T06:33:22.358Z,-9.4
2018-02-25T06:34:21.480Z,-9.4
2018-02-25T06:36:18.994Z,-9.4
2018-02-25T06:37:17.727Z,-9.4
2018-02-25T06:38:16.970Z,-9.4
2018-02-25T06:39:15.696Z,-9.4
2018-02-25T06:40:14.608Z,-9.4
2018-02-25T06:41:13.443Z,-9.4
2018-02-25T06:42:12.170Z,-9.4
2018-02-25T06:43:10.788Z,-9.4
2018-02-25T06:44:10.031Z,-9.4
2018-02-25T06:46:07.353Z,-9.3
2018-02-25T06:47:06.191Z,-9.3
2018-02-25T06:48:05.041Z,-9.3
2018-02-25T06:50:02.764Z,-9.3
2018-02-25T06:51:01.890Z,-9.3
2018-02-25T06:52:00.629Z,-9.3
2018-02-25T06:52:59.245Z,-9.3
2018-02-25T06:54:57.133Z,-9.3
2018-02-25T06:55:27.675Z,-9.3
2018-02-25T06:55:58.111Z,-9.3
2018-02-25T06:56:28.442Z,-9.3
2018-02-25T06:56:58.877Z,-9.3
2018-02-25T06:57:29.317Z,-9.3
2018-02-25T06:58:52.267Z,-9.3
2018-02-25T07:00:49.796Z,-9.2
2018-02-25T07:02:47.291Z,-9.2
2018-02-25T07:04:45.119Z,-9.2
2018-02-25T07:05:44.238Z,-9.2
2018-02-25T07:06:42.855Z,-9.2
2018-02-25T07:07:41.581Z,-9.1
2018-02-25T07:08:40.809Z,-9.1
2018-02-25T07:09:39.428Z,-9.1
2018-02-25T07:10:38.443Z,-9.1
2018-02-25T07:11:37.060Z,-9.1
2018-02-25T07:12:35.676Z,-9.1
2018-02-25T07:14:33.572Z,-9.1
2018-02-25T07:15:32.297Z,-9
2018-02-25T07:17:30.292Z,-9
2018-02-25T07:18:28.913Z,-9
2018-02-25T07:20:26.198Z,-8.9
2018-02-25T07:21:25.430Z,-8.9
2018-02-25T07:22:24.274Z,-8.9
2018-02-25T07:23:22.999Z,-8.9
2018-02-25T07:24:21.935Z,-8.9
2018-02-25T07:25:20.547Z,-8.9
2018-02-25T07:26:19.568Z,-8.9
2018-02-25T07:28:16.952Z,-8.9
2018-02-25T07:31:13.435Z,-8.8
2018-02-25T07:32:12.549Z,-8.8
2018-02-25T07:33:11.282Z,-8.8
2018-02-25T07:35:08.884Z,-8.8
2018-02-25T07:36:08.011Z,-8.8
2018-02-25T07:37:06.746Z,-8.8
2018-02-25T07:38:05.586Z,-8.8
2018-02-25T07:39:04.207Z,-8.7
2018-02-25T07:39:34.541Z,-8.7
2018-02-25T07:42:00.827Z,-8.7
2018-02-25T07:42:59.556Z,-8.6
2018-02-25T07:43:58.675Z,-8.7
2018-02-25T07:44:57.197Z,-8.6
2018-02-25T07:45:56.320Z,-8.6
2018-02-25T07:46:55.042Z,-8.6
2018-02-25T07:47:53.710Z,-8.6
2018-02-25T07:48:52.672Z,-8.6
2018-02-25T07:49:51.437Z,-8.6
2018-02-25T07:52:47.961Z,-8.5
2018-02-25T07:54:45.859Z,-8.5
2018-02-25T07:55:44.597Z,-8.4
2018-02-25T07:56:43.216Z,-8.4
2018-02-25T07:57:42.333Z,-8.4
2018-02-25T07:58:41.174Z,-8.4
2018-02-25T07:59:39.793Z,-8.4
2018-02-25T08:01:37.206Z,-8.4
2018-02-25T08:02:36.545Z,-8.3
2018-02-25T08:03:35.276Z,-8.3
2018-02-25T08:04:34.013Z,-8.3
2018-02-25T08:05:32.850Z,-8.3
2018-02-25T08:06:31.980Z,-8.3
2018-02-25T08:08:29.790Z,-8.2
2018-02-25T08:10:27.079Z,-8.2
2018-02-25T08:11:25.819Z,-8.2
2018-02-25T08:12:24.944Z,-8.2
2018-02-25T08:16:20.312Z,-8.1
2018-02-25T08:17:19.173Z,-8.1
2018-02-25T08:18:18.014Z,-8.1
2018-02-25T08:20:15.238Z,-8.1
2018-02-25T08:21:14.362Z,-8
2018-02-25T08:24:10.636Z,-7.9
2018-02-25T08:25:09.651Z,-7.9
2018-02-25T08:26:08.490Z,-7.9
2018-02-25T08:27:07.455Z,-7.9
2018-02-25T08:29:04.848Z,-7.8
2018-02-25T08:29:35.398Z,-7.8
2018-02-25T08:30:05.832Z,-7.8
2018-02-25T08:30:36.158Z,-7.8
2018-02-25T08:31:06.701Z,-7.8
2018-02-25T08:32:01.924Z,-7.9
2018-02-25T08:33:00.652Z,-7.8
2018-02-25T08:33:59.049Z,-7.8
2018-02-25T08:34:58.282Z,-7.8
2018-02-25T08:36:55.570Z,-7.8
2018-02-25T08:38:53.669Z,-7.8
2018-02-25T08:39:52.392Z,-7.8
2018-02-25T08:40:51.013Z,-7.7
2018-02-25T08:42:48.614Z,-7.7
2018-02-25T08:43:47.946Z,-7.7
2018-02-25T08:44:46.674Z,-7.7
2018-02-25T08:46:44.280Z,-7.7
2018-02-25T08:48:41.885Z,-7.7
2018-02-25T08:49:40.501Z,-7.7
2018-02-25T08:50:39.617Z,-7.6
2018-02-25T08:51:38.230Z,-7.6
2018-02-25T08:53:36.341Z,-7.5
2018-02-25T08:54:34.967Z,-7.5
2018-02-25T08:55:33.833Z,-7.5
2018-02-25T08:56:32.659Z,-7.5
2018-02-25T08:57:31.677Z,-7.5
2018-02-25T08:58:02.341Z,-7.5
2018-02-25T08:58:32.668Z,-7.5
2018-02-25T08:59:29.380Z,-7.5
2018-02-25T09:00:28.109Z,-7.5
2018-02-25T09:01:26.736Z,-7.5
2018-02-25T09:02:25.874Z,-7.5
2018-02-25T09:03:24.508Z,-7.5
2018-02-25T09:04:23.239Z,-7.5
2018-02-25T09:05:22.264Z,-7.5
2018-02-25T09:06:20.991Z,-7.5
2018-02-25T09:07:19.733Z,-7.4
2018-02-25T09:10:16.511Z,-7.4
2018-02-25T09:11:15.424Z,-7.3
2018-02-25T09:13:12.928Z,-7.3
2018-02-25T09:14:11.943Z,-7.2
2018-02-25T09:15:10.938Z,-7.2
2018-02-25T09:16:09.547Z,-7.2
2018-02-25T09:17:08.286Z,-7.1
2018-02-25T09:18:07.540Z,-7.1
2018-02-25T09:19:06.067Z,-7.1
2018-02-25T09:21:03.797Z,-7
2018-02-25T09:22:02.820Z,-7
2018-02-25T09:23:01.446Z,-7
2018-02-25T09:24:00.601Z,-6.9
2018-02-25T09:24:59.442Z,-6.9
2018-02-25T09:25:58.062Z,-6.9
2018-02-25T09:26:56.787Z,-6.9
2018-02-25T09:27:56.028Z,-6.9
2018-02-25T09:29:53.805Z,-6.9
2018-02-25T09:30:51.979Z,-6.9
2018-02-25T09:31:51.099Z,-6.9
2018-02-25T09:32:50.219Z,-6.9
2018-02-25T09:33:48.828Z,-6.8
2018-02-25T09:34:47.842Z,-6.8
2018-02-25T09:35:46.674Z,-6.8
2018-02-25T09:39:41.830Z,-6.8
2018-02-25T09:40:40.655Z,-6.8
2018-02-25T09:41:39.604Z,-6.8
2018-02-25T09:42:38.620Z,-6.7
2018-02-25T09:43:37.353Z,-6.7
2018-02-25T09:44:36.074Z,-6.7
2018-02-25T09:45:35.200Z,-6.6
2018-02-25T09:46:33.827Z,-6.6
2018-02-25T09:47:32.951Z,-6.6
2018-02-25T09:48:31.689Z,-6.5
2018-02-25T09:50:29.185Z,-6.5
2018-02-25T09:51:28.209Z,-6.5
2018-02-25T09:52:27.223Z,-6.5
2018-02-25T09:53:25.950Z,-6.4
2018-02-25T09:55:23.678Z,-6.4
2018-02-25T09:56:22.293Z,-6.3
2018-02-25T09:59:19.173Z,-6.2
2018-02-25T10:01:17.056Z,-6.3
2018-02-25T10:02:15.674Z,-6.2
2018-02-25T10:03:14.207Z,-6.2
2018-02-25T10:04:13.647Z,-6.2
2018-02-25T10:05:12.276Z,-6.2
2018-02-25T10:06:11.121Z,-6.2
2018-02-25T10:07:09.751Z,-6.1
2018-02-25T10:08:08.988Z,-6.1
2018-02-25T10:10:06.605Z,-6
2018-02-25T10:12:04.499Z,-5.9
2018-02-25T10:13:03.336Z,-5.9
2018-02-25T10:14:01.957Z,-5.9
2018-02-25T10:15:00.673Z,-5.8
2018-02-25T10:15:59.688Z,-5.8
2018-02-25T10:17:57.690Z,-5.8
2018-02-25T10:18:56.523Z,-5.8
2018-02-25T10:19:55.330Z,-5.8
2018-02-25T10:20:53.949Z,-5.8
2018-02-25T10:21:52.576Z,-5.8
2018-02-25T10:23:50.570Z,-5.9
2018-02-25T10:25:48.282Z,-5.8
2018-02-25T10:26:47.220Z,-5.8
2018-02-25T10:27:46.344Z,-5.8
2018-02-25T10:28:44.958Z,-5.8
2018-02-25T10:29:44.203Z,-5.7
2018-02-25T10:30:42.532Z,-5.7
2018-02-25T10:31:41.484Z,-5.7
2018-02-25T10:32:40.322Z,-5.7
2018-02-25T10:33:39.347Z,-5.7
2018-02-25T10:34:38.173Z,-5.6
2018-02-25T10:35:37.079Z,-5.6
2018-02-25T10:36:07.516Z,-5.6
2018-02-25T10:36:37.840Z,-5.5
2018-02-25T10:37:34.666Z,-5.5
2018-02-25T10:38:33.995Z,-5.5
2018-02-25T10:39:32.724Z,-5.5
2018-02-25T10:42:29.436Z,-5.4
2018-02-25T10:43:28.094Z,-5.4
2018-02-25T10:44:26.844Z,-5.4
2018-02-25T10:45:26.077Z,-5.3
2018-02-25T10:47:23.798Z,-5.4
2018-02-25T10:48:22.253Z,-5.4
2018-02-25T10:49:21.163Z,-5.4
2018-02-25T10:50:19.997Z,-5.4
2018-02-25T10:51:18.853Z,-5.3
2018-02-25T10:52:17.862Z,-5.3
2018-02-25T10:53:16.704Z,-5.3
2018-02-25T10:54:15.729Z,-5.3
2018-02-25T10:56:13.448Z,-5.3
2018-02-25T10:57:12.074Z,-5.3
2018-02-25T10:58:11.102Z,-5.3
2018-02-25T10:59:09.726Z,-5.3
2018-02-25T11:01:07.844Z,-5.3
2018-02-25T11:02:06.685Z,-5.3
2018-02-25T11:03:05.211Z,-5.3
2018-02-25T11:04:04.250Z,-5.3
2018-02-25T11:06:01.977Z,-5.2
2018-02-25T11:06:32.022Z,-5.2
2018-02-25T11:07:59.716Z,-5.2
2018-02-25T11:09:57.607Z,-5.1
2018-02-25T11:11:55.325Z,-4.9
2018-02-25T11:12:54.447Z,-4.9
2018-02-25T11:13:53.073Z,-4.9
2018-02-25T11:14:52.202Z,-5
2018-02-25T11:15:50.819Z,-4.9
2018-02-25T11:16:21.261Z,-4.9
2018-02-25T11:17:48.786Z,-5.1
2018-02-25T11:18:47.403Z,-5.1
2018-02-25T11:19:46.310Z,-5.1
2018-02-25T11:21:43.922Z,-5.1
2018-02-25T11:22:42.939Z,-5.1
2018-02-25T11:23:42.072Z,-5.1
2018-02-25T11:25:39.846Z,-4.9
2018-02-25T11:26:38.570Z,-4.8
2018-02-25T11:27:37.303Z,-4.9
2018-02-25T11:28:36.321Z,-4.8
2018-02-25T11:29:34.832Z,-4.8
2018-02-25T11:30:33.949Z,-4.8
2018-02-25T11:31:33.133Z,-4.8
2018-02-25T11:32:31.982Z,-4.9
2018-02-25T11:33:30.597Z,-4.8
2018-02-25T11:34:29.728Z,-4.8
2018-02-25T11:35:28.465Z,-4.7
2018-02-25T11:36:27.280Z,-4.7
2018-02-25T11:38:25.280Z,-4.6
2018-02-25T11:39:23.895Z,-4.6
2018-02-25T11:41:21.903Z,-4.5
2018-02-25T11:42:20.786Z,-4.4
2018-02-25T11:43:19.535Z,-4.5
2018-02-25T11:44:18.554Z,-4.6
2018-02-25T11:45:17.296Z,-4.6
2018-02-25T11:46:16.138Z,-4.6
2018-02-25T11:48:13.764Z,-4.6
2018-02-25T11:49:12.892Z,-4.6
2018-02-25T11:50:11.623Z,-4.6
2018-02-25T11:51:10.753Z,-4.6
2018-02-25T11:52:09.394Z,-4.6
2018-02-25T11:53:08.773Z,-4.5
2018-02-25T11:54:07.242Z,-4.5
2018-02-25T11:55:05.973Z,-4.5
2018-02-25T11:56:04.882Z,-4.5
2018-02-25T11:57:03.897Z,-4.5
2018-02-25T11:59:01.500Z,-4.4
2018-02-25T12:00:00.135Z,-4.3
2018-02-25T12:00:59.148Z,-4.2
2018-02-25T12:01:58.272Z,-4.2
2018-02-25T12:02:57.213Z,-4.2
2018-02-25T12:04:54.826Z,-4.2
2018-02-25T12:06:52.952Z,-4.2
2018-02-25T12:08:50.778Z,-4.1
2018-02-25T12:10:48.280Z,-4
2018-02-25T12:11:46.893Z,-4
2018-02-25T12:12:45.907Z,-4
2018-02-25T12:13:45.255Z,-4
2018-02-25T12:15:42.973Z,-4.1
2018-02-25T12:16:41.699Z,-4
2018-02-25T12:17:40.715Z,-4
2018-02-25T12:18:39.335Z,-3.9
2018-02-25T12:19:38.351Z,-3.9
2018-02-25T12:20:37.179Z,-3.8
2018-02-25T12:21:35.802Z,-4
2018-02-25T12:23:34.019Z,-4
2018-02-25T12:24:32.640Z,-4
2018-02-25T12:25:31.760Z,-4
2018-02-25T12:26:30.754Z,-4
2018-02-25T12:27:29.371Z,-4
2018-02-25T12:28:28.093Z,-4
2018-02-25T12:29:27.333Z,-4
2018-02-25T12:30:26.062Z,-3.9
2018-02-25T12:31:24.791Z,-3.9
2018-02-25T12:32:23.920Z,-3.8
2018-02-25T12:34:21.418Z,-3.8
2018-02-25T12:35:20.537Z,-3.8
2018-02-25T12:36:19.451Z,-3.8
2018-02-25T12:37:18.281Z,-3.7
2018-02-25T12:38:17.513Z,-3.7
2018-02-25T12:39:16.126Z,-3.7
2018-02-25T12:39:46.560Z,-3.7
2018-02-25T12:41:13.857Z,-3.9
2018-02-25T12:42:12.587Z,-3.8
2018-02-25T12:43:11.491Z,-3.7
2018-02-25T12:45:09.711Z,-3.6
2018-02-25T12:46:08.223Z,-3.6
2018-02-25T12:47:07.459Z,-3.6
2018-02-25T12:48:06.189Z,-3.6
2018-02-25T12:48:36.728Z,-3.6
2018-02-25T12:49:07.166Z,-3.6
2018-02-25T12:49:37.606Z,-3.6
2018-02-25T12:51:03.001Z,-3.6
2018-02-25T12:52:01.911Z,-3.5
2018-02-25T12:53:00.650Z,-3.5
2018-02-25T12:53:59.382Z,-3.4
2018-02-25T12:56:56.382Z,-3.2
2018-02-25T12:57:54.897Z,-3.1
2018-02-25T12:58:54.034Z,-3.1
2018-02-25T12:59:52.758Z,-3.1
2018-02-25T13:00:51.887Z,-3.1
2018-02-25T13:01:51.017Z,-3.3
2018-02-25T13:02:49.536Z,-3.3
2018-02-25T13:03:48.660Z,-3.2
2018-02-25T13:04:47.270Z,-3.2
2018-02-25T13:05:46.615Z,-3.2
2018-02-25T13:06:45.237Z,-3.4
2018-02-25T13:07:44.262Z,-3.4
2018-02-25T13:08:42.994Z,-3.4
2018-02-25T13:09:42.011Z,-3.4
2018-02-25T13:10:41.035Z,-3.3
2018-02-25T13:11:39.764Z,-3.3
2018-02-25T13:12:39.002Z,-3.1
2018-02-25T13:13:37.641Z,-3.1
2018-02-25T13:14:36.594Z,-3
2018-02-25T13:15:35.323Z,-2.9
2018-02-25T13:16:34.558Z,-2.9
2018-02-25T13:17:33.288Z,-2.8
2018-02-25T13:18:03.945Z,-2.8
2018-02-25T13:18:34.487Z,-2.8
2018-02-25T13:19:05.044Z,-2.8
2018-02-25T13:20:29.729Z,-2.8
2018-02-25T13:21:29.063Z,-2.7
2018-02-25T13:22:27.682Z,-2.7
2018-02-25T13:24:26.038Z,-2.6
2018-02-25T13:25:24.409Z,-2.6
2018-02-25T13:27:22.201Z,-2.5
2018-02-25T13:27:52.528Z,-2.5
2018-02-25T13:28:22.853Z,-2.5
2018-02-25T13:28:53.180Z,-2.5
2018-02-25T13:29:23.620Z,-2.6
2018-02-25T13:29:54.167Z,-2.6
2018-02-25T13:30:24.612Z,-2.6
2018-02-25T13:30:55.158Z,-2.6
2018-02-25T13:32:16.760Z,-2.6
2018-02-25T13:33:15.602Z,-2.5
2018-02-25T13:34:14.725Z,-2.5
2018-02-25T13:35:13.455Z,-2.4
2018-02-25T13:36:12.578Z,-2.3
2018-02-25T13:37:11.309Z,-2.3
2018-02-25T13:38:10.474Z,-2.2
2018-02-25T13:39:09.087Z,-2.1
2018-02-25T13:40:08.108Z,-2.2
2018-02-25T13:41:07.011Z,-2.2
2018-02-25T13:42:05.743Z,-2.2
2018-02-25T13:43:04.888Z,-2.1
2018-02-25T13:44:04.020Z,-2.1
2018-02-25T13:46:01.632Z,-2
2018-02-25T13:47:00.465Z,-2.2
2018-02-25T13:47:59.411Z,-2.1
2018-02-25T13:48:58.140Z,-2.1
2018-02-25T13:49:57.487Z,-2
2018-02-25T13:50:56.217Z,-1.9
2018-02-25T13:51:55.340Z,-1.9
2018-02-25T13:52:54.082Z,-2
2018-02-25T13:53:53.210Z,-1.9
2018-02-25T13:54:51.941Z,-1.8
2018-02-25T13:55:50.781Z,-2
2018-02-25T13:56:50.019Z,-2
2018-02-25T13:57:48.546Z,-2
2018-02-25T13:58:47.681Z,-1.9
2018-02-25T13:59:18.338Z,-1.9
2018-02-25T13:59:48.381Z,-1.7
2018-02-25T14:00:45.327Z,-1.7
2018-02-25T14:01:44.451Z,-1.6
2018-02-25T14:02:43.185Z,-1.5
2018-02-25T14:03:42.531Z,-1.4
2018-02-25T14:04:41.160Z,-1.4
2018-02-25T14:05:40.397Z,-1.3
2018-02-25T14:07:38.126Z,-1.2
2018-02-25T14:09:35.851Z,-1.2
2018-02-25T14:10:06.402Z,-1.2
2018-02-25T14:10:37.045Z,-1.2
2018-02-25T14:11:07.593Z,-1.2
2018-02-25T14:11:37.699Z,-1.2
2018-02-25T14:14:30.550Z,-1
2018-02-25T14:15:29.374Z,-0.9
2018-02-25T14:17:27.267Z,-1.1
2018-02-25T14:18:25.891Z,-1.3
2018-02-25T14:18:56.685Z,-1.3
2018-02-25T14:20:23.963Z,-1.4
2018-02-25T14:21:23.094Z,-1.2
2018-02-25T14:22:21.721Z,-1.2
2018-02-25T14:23:20.952Z,-1
2018-02-25T14:24:19.509Z,-1
2018-02-25T14:25:18.850Z,-1.1
2018-02-25T14:26:17.647Z,-1.2
2018-02-25T14:27:16.257Z,-1
2018-02-25T14:28:15.374Z,-0.9
2018-02-25T14:29:14.730Z,-0.9
2018-02-25T14:31:12.342Z,-0.7
2018-02-25T14:32:11.120Z,-0.7
2018-02-25T14:33:10.017Z,-0.6
2018-02-25T14:34:09.359Z,-0.4
2018-02-25T14:35:08.078Z,-0.4
2018-02-25T14:37:06.187Z,-0.6
2018-02-25T14:38:05.032Z,-0.6
2018-02-25T14:39:04.153Z,-0.9
2018-02-25T14:40:02.770Z,-1
2018-02-25T14:41:01.789Z,-1
2018-02-25T14:42:00.526Z,-0.8
2018-02-25T14:42:59.645Z,-0.7
2018-02-25T14:43:58.475Z,-0.7
2018-02-25T14:45:56.593Z,-0.4
2018-02-25T14:46:55.431Z,-0.6
2018-02-25T14:47:54.660Z,-0.5
2018-02-25T14:48:53.508Z,-0.4
2018-02-25T14:49:52.132Z,-0.3
2018-02-25T14:50:22.681Z,-0.3
2018-02-25T14:50:53.016Z,-0.4
2018-02-25T14:51:50.340Z,-0.3
2018-02-25T14:52:49.066Z,-0.2
2018-02-25T14:53:48.190Z,-0.2
2018-02-25T14:54:47.147Z,0
2018-02-25T14:55:45.876Z,0.1
2018-02-25T14:56:44.993Z,0.1
2018-02-25T14:58:42.995Z,0.3
2018-02-25T14:59:41.829Z,0.3
2018-02-25T15:01:39.830Z,0.5
2018-02-25T15:02:38.455Z,0.7
2018-02-25T15:03:37.592Z,0.7
2018-02-25T15:06:34.582Z,0.4
2018-02-25T15:07:33.206Z,1.1
2018-02-25T15:08:32.542Z,0.9
2018-02-25T15:09:31.051Z,0.9
2018-02-25T15:10:30.068Z,1.2
2018-02-25T15:12:27.845Z,1.5
2018-02-25T15:13:27.185Z,1.2
2018-02-25T15:14:25.835Z,1.3
2018-02-25T15:16:23.837Z,1.3
2018-02-25T15:17:22.850Z,1.7
2018-02-25T15:18:21.848Z,1.7
2018-02-25T15:19:20.595Z,1.6
2018-02-25T15:20:19.709Z,1.3
2018-02-25T15:21:18.830Z,1.5
2018-02-25T15:22:17.571Z,1.2
2018-02-25T15:23:16.688Z,1.2
2018-02-25T15:25:14.523Z,1.4
2018-02-25T15:25:45.178Z,1.4
2018-02-25T15:26:15.500Z,1.4
2018-02-25T15:27:12.502Z,1.3
2018-02-25T15:28:11.229Z,1.5
2018-02-25T15:29:10.463Z,0.9
2018-02-25T15:30:09.078Z,1.2
2018-02-25T15:31:08.203Z,1.3
2018-02-25T15:32:07.221Z,1.6
2018-02-25T15:33:05.832Z,1.4
2018-02-25T15:34:05.064Z,1.4
2018-02-25T15:37:01.941Z,1.3
2018-02-25T15:38:00.880Z,1.1
2018-02-25T15:38:59.940Z,0.7